Time;durP1;ratioP1;P1;durP2;ratioP2;P2;SDS_P1;SDS_P2;PMS_P1;PMS_P2;Temp;Humidity;BMP_temperature;BMP_pressure;BME280_temperature;BME280_humidity;BME280_pressure;Samples;Min_cycle;Max_cycle;Signal;HPM_P1;HPM_P2
2022/07/04 00:00:05;;;;;;;10.60;4.72;;;22.50;99.90;;;;;;4210128;28;20078;-65
2022/07/04 00:02:07;;;;;;;6.88;4.93;;;22.50;99.90;;;;;;4211136;28;20525;-63
2022/07/04 00:04:08;;;;;;;7.15;5.05;;;22.50;99.90;;;;;;4211115;28;20028;-66
2022/07/04 00:06:09;;;;;;;6.78;5.45;;;22.50;99.90;;;;;;4210760;28;20089;-66
2022/07/04 00:08:10;;;;;;;7.90;5.10;;;22.50;99.90;;;;;;4211342;28;20089;-63
2022/07/04 00:10:14;;;;;;;10.05;4.57;;;22.50;99.90;;;;;;4210775;28;20036;-64
2022/07/04 00:12:15;;;;;;;8.35;5.40;;;22.40;99.90;;;;;;4211877;28;20482;-66
2022/07/04 00:14:17;;;;;;;7.20;5.07;;;22.40;99.90;;;;;;4210351;28;20044;-66
2022/07/04 00:16:18;;;;;;;8.50;4.97;;;22.30;99.90;;;;;;4211632;28;20078;-65
2022/07/04 00:18:19;;;;;;;14.85;5.88;;;22.30;99.90;;;;;;4210730;28;20040;-66
2022/07/04 00:20:21;;;;;;;9.90;5.30;;;22.30;99.90;;;;;;4211944;28;20093;-66
2022/07/04 00:22:22;;;;;;;6.55;4.78;;;22.30;99.90;;;;;;4210215;28;20028;-65
2022/07/04 00:24:23;;;;;;;10.95;5.80;;;22.40;99.90;;;;;;4211727;28;20036;-65
2022/07/04 00:26:24;;;;;;;7.13;5.20;;;22.40;99.90;;;;;;4210041;28;20552;-62
2022/07/04 00:28:25;;;;;;;8.43;5.15;;;22.30;99.90;;;;;;4210756;28;20473;-67
2022/07/04 00:30:26;;;;;;;10.75;5.32;;;22.30;99.90;;;;;;4210452;28;20794;-65
2022/07/04 00:32:27;;;;;;;11.55;5.50;;;22.30;99.90;;;;;;4211254;28;20109;-67
2022/07/04 00:34:29;;;;;;;13.18;5.15;;;22.20;99.90;;;;;;4211015;28;20036;-63
2022/07/04 00:36:30;;;;;;;8.75;4.75;;;22.20;99.90;;;;;;4210541;28;20036;-67
2022/07/04 00:38:31;;;;;;;6.35;4.70;;;22.10;99.90;;;;;;4209630;28;20044;-63
2022/07/04 00:40:33;;;;;;;7.47;5.15;;;22.10;99.90;;;;;;4210375;28;20499;-66
2022/07/04 00:42:34;;;;;;;7.28;5.32;;;22.10;99.90;;;;;;4211832;28;20101;-64
2022/07/04 00:44:36;;;;;;;6.95;4.85;;;22.10;99.90;;;;;;4210151;28;20082;-64
2022/07/04 00:46:37;;;;;;;11.45;5.80;;;22.00;99.90;;;;;;4211566;28;20474;-66
2022/07/04 00:48:38;;;;;;;7.53;4.65;;;22.00;99.90;;;;;;4210221;28;20233;-64
2022/07/04 00:50:39;;;;;;;9.07;5.43;;;21.90;99.90;;;;;;4211253;28;20113;-65
2022/07/04 00:52:41;;;;;;;9.98;5.72;;;21.90;99.90;;;;;;4210212;28;20086;-65
2022/07/04 00:54:42;;;;;;;13.40;4.95;;;21.90;99.90;;;;;;4211256;28;20032;-62
2022/07/04 00:56:44;;;;;;;11.32;5.93;;;21.90;99.90;;;;;;4209873;28;20525;-66
2022/07/04 00:58:46;;;;;;;8.45;5.30;;;21.80;99.90;;;;;;4211237;28;20062;-65
2022/07/04 01:00:47;;;;;;;8.85;4.97;;;21.80;99.90;;;;;;4210004;28;20078;-65
2022/07/04 01:02:48;;;;;;;7.85;5.55;;;21.90;99.90;;;;;;4211145;28;20044;-66
2022/07/04 01:04:49;;;;;;;8.02;5.15;;;21.90;99.90;;;;;;4211470;28;20495;-65
2022/07/04 01:06:52;;;;;;;8.18;4.45;;;21.90;99.90;;;;;;4213717;28;20020;-66
2022/07/04 01:08:53;;;;;;;13.57;6.60;;;21.90;99.90;;;;;;4213846;28;20020;-63
2022/07/04 01:10:54;;;;;;;7.97;5.68;;;21.90;99.90;;;;;;4213176;28;20040;-65
2022/07/04 01:12:55;;;;;;;10.00;5.20;;;21.90;99.90;;;;;;4214439;28;20028;-63
2022/07/04 01:14:56;;;;;;;9.48;5.22;;;21.90;99.90;;;;;;4213268;28;20040;-62
2022/07/04 01:16:58;;;;;;;10.40;4.85;;;21.90;99.90;;;;;;4214113;28;20106;-64
2022/07/04 01:18:59;;;;;;;9.30;5.55;;;21.90;99.90;;;;;;4212829;28;20390;-65
2022/07/04 01:21:00;;;;;;;11.25;5.60;;;21.90;99.90;;;;;;4214366;28;20093;-65
2022/07/04 01:23:01;;;;;;;13.07;5.07;;;21.90;99.90;;;;;;4212681;28;20059;-66
2022/07/04 01:25:03;;;;;;;8.32;5.10;;;21.90;99.90;;;;;;4213929;28;20105;-62
2022/07/04 01:27:04;;;;;;;9.32;5.40;;;21.90;99.90;;;;;;4212063;28;20089;-65
2022/07/04 01:29:05;;;;;;;9.32;5.63;;;21.90;99.90;;;;;;4214251;28;20036;-63
2022/07/04 01:31:07;;;;;;;8.65;5.63;;;21.90;99.90;;;;;;4213055;28;20085;-65
2022/07/04 01:33:08;;;;;;;9.57;5.60;;;21.80;99.90;;;;;;4213450;28;20082;-63
2022/07/04 01:35:10;;;;;;;9.02;4.45;;;21.80;99.90;;;;;;4212959;28;20028;-62
2022/07/04 01:37:11;;;;;;;8.43;4.95;;;21.80;99.90;;;;;;4213104;28;20028;-65
2022/07/04 01:39:13;;;;;;;6.57;5.10;;;21.70;99.90;;;;;;4213427;28;20403;-65
2022/07/04 01:41:14;;;;;;;9.52;4.90;;;21.70;99.90;;;;;;4212376;28;20085;-65
2022/07/04 01:43:15;;;;;;;8.57;5.38;;;21.60;99.90;;;;;;4213735;28;20446;-64
2022/07/04 01:45:16;;;;;;;11.35;4.85;;;21.60;99.90;;;;;;4212351;28;20085;-65
2022/07/04 01:47:17;;;;;;;13.45;5.25;;;21.60;99.90;;;;;;4213705;28;20085;-64
2022/07/04 01:49:18;;;;;;;10.68;5.57;;;21.50;99.90;;;;;;4212261;28;20116;-64
2022/07/04 01:51:20;;;;;;;6.70;4.65;;;21.60;99.90;;;;;;4213553;28;20032;-66
2022/07/04 01:53:21;;;;;;;11.27;4.95;;;21.50;99.90;;;;;;4212442;28;20028;-66
2022/07/04 01:55:22;;;;;;;6.00;5.18;;;21.50;99.90;;;;;;4213690;28;20086;-66
2022/07/04 01:57:23;;;;;;;8.10;5.07;;;21.50;99.90;;;;;;4212170;28;20052;-66
2022/07/04 02:01:29;;;;;;;7.95;5.10;;;21.50;99.90;;;;;;4213506;28;20020;-64
2022/07/04 02:01:45;;;;;;;8.60;5.00;;;21.50;99.90;;;;;;4212294;28;20063;-64
2022/07/04 02:03:47;;;;;;;5.63;4.85;;;21.40;99.90;;;;;;4213501;28;20112;-64
2022/07/04 02:05:48;;;;;;;10.50;5.22;;;21.30;99.90;;;;;;4212180;28;20458;-63
2022/07/04 02:07:49;;;;;;;9.27;4.85;;;21.30;99.90;;;;;;4213470;28;20052;-65
2022/07/04 02:09:50;;;;;;;9.48;5.45;;;21.30;99.90;;;;;;4212208;28;20028;-61
2022/07/04 02:14:11;;;;;;;10.40;5.33;;;21.20;99.90;;;;;;4215439;28;20485;-64
2022/07/04 02:16:12;;;;;;;10.15;5.30;;;21.20;99.90;;;;;;4211830;28;20288;-62
2022/07/04 02:18:13;;;;;;;10.75;4.82;;;21.10;99.90;;;;;;4212236;28;20089;-64
2022/07/04 02:20:14;;;;;;;9.23;5.63;;;21.10;99.90;;;;;;4212380;28;20077;-66
2022/07/04 02:22:16;;;;;;;11.57;5.90;;;21.10;99.90;;;;;;4212795;28;20032;-62
2022/07/04 02:24:17;;;;;;;7.10;5.20;;;21.10;99.90;;;;;;4211730;28;20032;-63
2022/07/04 02:26:19;;;;;;;10.07;5.65;;;21.00;99.90;;;;;;4212763;28;20082;-62
2022/07/04 02:28:20;;;;;;;11.43;6.10;;;21.00;99.90;;;;;;4211511;28;20462;-65
2022/07/04 02:30:22;;;;;;;8.80;5.07;;;21.00;99.90;;;;;;4211578;28;20035;-64
2022/07/04 02:32:23;;;;;;;6.82;4.95;;;21.00;99.90;;;;;;4211591;28;20040;-65
2022/07/04 02:34:24;;;;;;;14.10;5.70;;;21.00;99.90;;;;;;4213222;28;20051;-66
2022/07/04 02:36:25;;;;;;;8.40;5.60;;;21.00;99.90;;;;;;4211894;28;20036;-65
2022/07/04 02:38:27;;;;;;;8.70;5.25;;;21.00;99.90;;;;;;4212842;28;20077;-65
2022/07/04 02:40:28;;;;;;;8.40;5.45;;;21.00;99.90;;;;;;4211649;28;20024;-66
2022/07/04 02:42:33;;;;;;;9.20;5.80;;;21.00;99.90;;;;;;4212457;28;20427;-64
2022/07/04 02:44:34;;;;;;;9.85;4.97;;;21.10;99.90;;;;;;4212013;28;20044;-66
2022/07/04 02:46:36;;;;;;;10.27;4.80;;;21.10;99.90;;;;;;4212373;28;20449;-64
2022/07/04 02:48:37;;;;;;;8.50;5.45;;;21.20;99.90;;;;;;4211874;28;20450;-64
2022/07/04 02:50:38;;;;;;;9.05;5.13;;;21.30;99.90;;;;;;4212016;28;20016;-65
2022/07/04 02:52:39;;;;;;;8.32;5.20;;;21.30;99.90;;;;;;4212377;28;20464;-64
2022/07/04 02:54:40;;;;;;;7.75;5.10;;;21.30;99.90;;;;;;4211528;28;20431;-67
2022/07/04 02:56:42;;;;;;;7.32;5.47;;;21.20;99.90;;;;;;4211660;28;20473;-64
2022/07/04 02:58:43;;;;;;;10.60;5.60;;;21.20;99.90;;;;;;4211293;28;20522;-66
2022/07/04 03:00:44;;;;;;;12.93;5.78;;;21.20;99.90;;;;;;4212183;28;20036;-65
2022/07/04 03:02:46;;;;;;;10.77;5.57;;;21.20;99.90;;;;;;4211226;28;20024;-65
2022/07/04 03:04:47;;;;;;;9.20;5.28;;;21.30;99.90;;;;;;4211988;28;20094;-61
2022/07/04 03:06:48;;;;;;;10.93;5.30;;;21.50;99.90;;;;;;4211024;28;20081;-63
2022/07/04 03:08:49;;;;;;;7.18;4.88;;;21.70;99.90;;;;;;4212233;28;20077;-65
2022/07/04 03:10:51;;;;;;;9.98;4.88;;;21.80;99.90;;;;;;4211023;28;20048;-64
2022/07/04 03:12:52;;;;;;;9.10;5.03;;;21.90;99.90;;;;;;4212601;28;20066;-66
2022/07/04 03:14:53;;;;;;;12.23;5.18;;;21.90;99.90;;;;;;4211536;28;20081;-65
2022/07/04 03:16:55;;;;;;;11.95;5.20;;;22.10;99.90;;;;;;4211482;28;20101;-64
2022/07/04 03:18:56;;;;;;;6.47;4.63;;;22.30;99.90;;;;;;4211302;28;20024;-64
2022/07/04 03:20:57;;;;;;;9.32;5.60;;;22.50;99.90;;;;;;4211625;28;20346;-65
2022/07/04 03:23:00;;;;;;;9.10;4.93;;;22.70;99.90;;;;;;4207719;28;20075;-63
2022/07/04 03:25:01;;;;;;;9.52;5.13;;;22.80;99.90;;;;;;4210545;28;20533;-63
2022/07/04 03:27:02;;;;;;;8.30;4.78;;;23.00;99.90;;;;;;4212019;28;20044;-62
2022/07/04 03:29:04;;;;;;;8.85;5.47;;;23.20;99.90;;;;;;4209949;28;20529;-63
2022/07/04 03:31:05;;;;;;;6.88;4.75;;;23.40;99.90;;;;;;4211978;28;20641;-64
2022/07/04 03:33:06;;;;;;;8.02;5.10;;;23.60;99.90;;;;;;4210874;28;20032;-63
2022/07/04 03:35:07;;;;;;;8.40;5.57;;;23.70;99.90;;;;;;4211745;28;20032;-63
2022/07/04 03:37:08;;;;;;;11.25;4.75;;;23.90;99.90;;;;;;4211793;28;20039;-63
2022/07/04 03:39:09;;;;;;;6.07;4.43;;;24.10;99.90;;;;;;4211469;28;20032;-64
2022/07/04 03:41:11;;;;;;;8.52;5.07;;;24.20;99.90;;;;;;4209523;28;20097;-63
2022/07/04 03:43:12;;;;;;;6.95;4.20;;;24.50;99.90;;;;;;4211593;28;20480;-65
2022/07/04 03:45:14;;;;;;;13.40;5.07;;;24.60;99.90;;;;;;4209842;28;20409;-63
2022/07/04 03:47:15;;;;;;;6.97;5.18;;;24.60;99.90;;;;;;4211884;28;20036;-63
2022/07/04 03:49:16;;;;;;;9.90;5.38;;;24.90;99.90;;;;;;4210299;28;20454;-65
2022/07/04 03:51:17;;;;;;;9.38;5.53;;;25.10;99.90;;;;;;4200893;28;20032;-64
2022/07/04 03:53:19;;;;;;;8.63;4.93;;;25.40;99.90;;;;;;4211033;28;20089;-66
2022/07/04 03:55:20;;;;;;;9.50;4.88;;;25.90;99.90;;;;;;4210669;28;20044;-66
2022/07/04 03:57:22;;;;;;;4.60;4.20;;;26.30;99.90;;;;;;4211039;28;20020;-64
2022/07/04 03:59:23;;;;;;;5.68;4.50;;;26.50;99.90;;;;;;4210403;28;20036;-66
2022/07/04 04:01:24;;;;;;;8.18;4.57;;;26.70;99.90;;;;;;4210778;28;20450;-65
2022/07/04 04:05:45;;;;;;;8.50;4.45;;;27.30;99.90;;;;;;4211888;28;20362;-69
2022/07/04 04:07:46;;;;;;;7.90;4.25;;;27.60;99.90;;;;;;4210070;28;20074;-68
2022/07/04 04:09:47;;;;;;;5.10;4.00;;;27.90;99.90;;;;;;4211334;28;20040;-70
2022/07/04 04:11:48;;;;;;;7.30;4.65;;;28.00;99.90;;;;;;4210156;28;20081;-64
2022/07/04 04:13:50;;;;;;;5.60;4.10;;;28.10;99.90;;;;;;4211093;28;20097;-66
2022/07/04 04:15:51;;;;;;;7.75;4.25;;;28.20;99.90;;;;;;4210126;28;20405;-65
2022/07/04 04:17:52;;;;;;;7.63;4.30;;;28.20;99.80;;;;;;4199801;28;20036;-64
2022/07/04 04:19:53;;;;;;;10.88;4.40;;;28.10;99.70;;;;;;4209812;28;20032;-64
2022/07/04 04:21:54;;;;;;;11.32;4.50;;;28.00;99.80;;;;;;4211250;28;20028;-66
2022/07/04 04:23:55;;;;;;;8.02;4.25;;;27.90;99.60;;;;;;4210135;28;20088;-67
2022/07/04 04:25:56;;;;;;;6.82;4.53;;;27.80;99.60;;;;;;4210210;28;20094;-64
2022/07/04 04:27:58;;;;;;;10.65;4.65;;;27.60;99.70;;;;;;4210015;28;20472;-65
2022/07/04 04:29:59;;;;;;;9.50;4.97;;;27.30;99.80;;;;;;4210528;28;20024;-65
2022/07/04 04:32:00;;;;;;;9.75;4.70;;;27.10;99.90;;;;;;4210070;28;20028;-67
2022/07/04 04:34:01;;;;;;;7.85;4.80;;;27.10;99.90;;;;;;4209854;28;20040;-66
2022/07/04 04:36:02;;;;;;;6.88;4.13;;;27.50;99.70;;;;;;4211251;28;20028;-66
2022/07/04 04:38:04;;;;;;;8.35;4.28;;;27.70;99.40;;;;;;4209968;28;20062;-63
2022/07/04 04:40:06;;;;;;;6.75;4.55;;;28.10;99.10;;;;;;4211926;28;20070;-61
2022/07/04 04:42:07;;;;;;;10.45;4.38;;;28.40;98.70;;;;;;4212705;28;20529;-57
2022/07/04 04:44:08;;;;;;;5.65;4.10;;;28.20;98.80;;;;;;4214842;28;20101;-63
2022/07/04 04:46:09;;;;;;;8.93;4.72;;;28.20;98.90;;;;;;4213255;28;20522;-64
2022/07/04 04:48:10;;;;;;;10.25;4.03;;;28.00;99.10;;;;;;4214700;28;20032;-65
2022/07/04 04:50:12;;;;;;;7.13;4.43;;;27.90;99.50;;;;;;4213477;28;20476;-66
2022/07/04 04:52:13;;;;;;;7.10;5.18;;;28.00;99.50;;;;;;4214239;28;20069;-66
2022/07/04 04:54:15;;;;;;;12.65;7.05;;;28.70;99.20;;;;;;4213191;28;20028;-61
2022/07/04 04:56:16;;;;;;;5.57;3.95;;;29.40;98.40;;;;;;4214106;28;20085;-65
2022/07/04 04:58:17;;;;;;;18.40;9.73;;;30.20;97.50;;;;;;4212073;28;20032;-65
2022/07/04 05:00:19;;;;;;;16.45;10.52;;;30.90;96.70;;;;;;4213580;28;20101;-64
2022/07/04 05:02:21;;;;;;;15.45;9.95;;;31.40;96.00;;;;;;4213774;28;20334;-67
2022/07/04 05:04:22;;;;;;;15.50;7.78;;;32.00;95.30;;;;;;4213452;28;20048;-68
2022/07/04 05:06:23;;;;;;;10.38;5.22;;;32.50;94.60;;;;;;4213977;28;20534;-66
2022/07/04 05:08:25;;;;;;;9.57;5.28;;;32.70;93.90;;;;;;4212875;28;20078;-66
2022/07/04 05:10:26;;;;;;;7.38;4.05;;;33.00;93.40;;;;;;4213861;28;20024;-66
2022/07/04 05:12:27;;;;;;;7.72;4.10;;;33.20;92.40;;;;;;4212605;28;20093;-66
2022/07/04 05:14:28;;;;;;;6.88;4.07;;;33.30;91.80;;;;;;4214447;28;20036;-65
2022/07/04 05:16:30;;;;;;;9.30;5.43;;;32.60;91.60;;;;;;4212822;28;20024;-66
2022/07/04 05:18:31;;;;;;;10.25;6.07;;;32.10;91.80;;;;;;4213859;28;20043;-63
2022/07/04 05:20:33;;;;;;;5.55;4.25;;;31.90;91.80;;;;;;4212737;28;20024;-64
2022/07/04 05:22:34;;;;;;;6.25;4.65;;;32.00;91.60;;;;;;4213625;28;20103;-66
2022/07/04 05:24:39;;;;;;;14.02;5.25;;;32.00;91.50;;;;;;4212402;28;20043;-65
2022/07/04 05:26:40;;;;;;;7.45;4.00;;;31.70;91.20;;;;;;4213418;28;20468;-65
2022/07/04 05:28:41;;;;;;;6.13;4.40;;;31.30;91.40;;;;;;4212755;28;20472;-67
2022/07/04 05:30:42;;;;;;;14.18;4.50;;;31.00;91.70;;;;;;4213164;28;20024;-67
2022/07/04 05:32:43;;;;;;;8.65;4.40;;;30.70;91.60;;;;;;4213085;28;20036;-66
2022/07/04 05:34:44;;;;;;;7.28;4.15;;;30.40;91.90;;;;;;4212852;28;20365;-66
2022/07/04 05:36:46;;;;;;;9.63;5.32;;;30.10;92.20;;;;;;4213093;28;20572;-64
2022/07/04 05:38:47;;;;;;;11.45;5.65;;;29.30;92.50;;;;;;4212289;28;20302;-63
2022/07/04 05:40:48;;;;;;;7.32;4.20;;;28.80;93.10;;;;;;4213373;28;20024;-66
2022/07/04 05:42:50;;;;;;;7.57;3.78;;;28.50;93.50;;;;;;4212357;28;20052;-67
2022/07/04 05:44:51;;;;;;;8.15;4.10;;;28.00;93.80;;;;;;4212333;28;20109;-66
2022/07/04 05:46:52;;;;;;;5.45;4.00;;;27.50;94.40;;;;;;4212151;28;20077;-64
2022/07/04 05:48:53;;;;;;;7.80;3.97;;;27.20;94.90;;;;;;4213239;28;20028;-67
2022/07/04 05:50:55;;;;;;;15.07;4.53;;;27.00;95.10;;;;;;4211865;28;20541;-65
2022/07/04 05:52:56;;;;;;;90.30;19.92;;;27.00;95.40;;;;;;4212898;28;20089;-64
2022/07/04 05:54:57;;;;;;;14.18;5.82;;;27.20;95.50;;;;;;4212212;28;20048;-63
2022/07/04 05:56:58;;;;;;;16.00;5.63;;;27.20;95.70;;;;;;4213086;28;20032;-65
2022/07/04 05:58:59;;;;;;;17.90;5.75;;;26.90;96.30;;;;;;4212458;28;20097;-67
2022/07/04 06:01:01;;;;;;;14.55;6.90;;;26.60;97.20;;;;;;4212891;28;20453;-68
2022/07/04 06:03:02;;;;;;;12.20;6.28;;;26.40;98.00;;;;;;4212336;28;20059;-63
2022/07/04 06:05:03;;;;;;;16.50;5.72;;;26.10;98.60;;;;;;4212249;28;20044;-64
2022/07/04 06:07:04;;;;;;;14.90;7.28;;;25.90;99.20;;;;;;4212921;28;20032;-65
2022/07/04 06:09:06;;;;;;;22.83;6.57;;;25.70;99.90;;;;;;4212315;28;20100;-65
2022/07/04 06:11:07;;;;;;;12.35;6.22;;;25.70;99.90;;;;;;4212738;28;20028;-63
2022/07/04 06:13:08;;;;;;;13.27;6.30;;;25.50;99.90;;;;;;4211752;28;20039;-66
2022/07/04 06:15:10;;;;;;;12.48;7.15;;;25.50;99.90;;;;;;4213253;28;20115;-66
2022/07/04 06:17:11;;;;;;;17.75;6.78;;;25.50;99.90;;;;;;4211670;28;20679;-67
2022/07/04 06:19:12;;;;;;;13.75;7.88;;;25.50;99.90;;;;;;4213073;28;20031;-68
2022/07/04 06:21:13;;;;;;;25.33;7.78;;;25.80;99.90;;;;;;4211927;28;20044;-66
2022/07/04 06:23:15;;;;;;;24.08;7.57;;;25.90;99.90;;;;;;4213041;28;20032;-67
2022/07/04 06:25:19;;;;;;;24.30;7.97;;;26.10;99.90;;;;;;4211564;28;20048;-64
2022/07/04 06:27:20;;;;;;;25.52;7.80;;;26.70;99.90;;;;;;4212960;28;20101;-63
2022/07/04 06:29:21;;;;;;;18.17;6.65;;;26.90;99.80;;;;;;4210548;28;20094;-64
2022/07/04 06:31:22;;;;;;;24.38;7.30;;;26.80;99.80;;;;;;4212403;28;20438;-64
2022/07/04 06:33:24;;;;;;;24.95;9.18;;;26.70;99.90;;;;;;4211997;28;20032;-64
2022/07/04 06:35:45;;;;;;;23.33;7.35;;;27.00;99.80;;;;;;4211964;28;20032;-66
2022/07/04 06:37:46;;;;;;;23.33;7.13;;;27.90;99.40;;;;;;4211533;28;20021;-64
2022/07/04 06:39:47;;;;;;;26.80;7.30;;;28.60;98.40;;;;;;4212001;28;20414;-65
2022/07/04 06:41:48;;;;;;;31.27;8.50;;;28.40;97.90;;;;;;4212058;28;20036;-64
2022/07/04 06:43:49;;;;;;;17.95;6.85;;;28.10;98.20;;;;;;4211513;28;20036;-67
2022/07/04 06:45:52;;;;;;;26.10;8.27;;;27.70;98.50;;;;;;4212564;28;20102;-64
2022/07/04 06:47:54;;;;;;;38.47;10.10;;;27.40;98.80;;;;;;4211112;28;20454;-65
2022/07/04 06:49:55;;;;;;;38.38;8.75;;;27.50;98.90;;;;;;4212334;28;20036;-64
2022/07/04 06:51:56;;;;;;;31.27;8.07;;;27.90;98.50;;;;;;4211331;28;20040;-63
2022/07/04 06:53:57;;;;;;;28.38;8.45;;;28.30;98.00;;;;;;4212294;28;20546;-63
2022/07/04 06:55:59;;;;;;;26.90;7.32;;;28.50;97.50;;;;;;4211119;28;20094;-66
2022/07/04 06:58:00;;;;;;;24.45;7.57;;;29.10;96.90;;;;;;4212503;28;20044;-64
2022/07/04 07:00:02;;;;;;;19.73;6.68;;;29.30;96.50;;;;;;4211099;28;20020;-68
2022/07/04 07:02:04;;;;;;;15.32;6.28;;;29.60;96.50;;;;;;4211937;28;20040;-66
2022/07/04 07:04:05;;;;;;;17.10;5.30;;;30.00;95.70;;;;;;4210771;28;20081;-66
2022/07/04 07:06:06;;;;;;;8.82;5.00;;;30.00;95.60;;;;;;4212226;28;20036;-64
2022/07/04 07:08:07;;;;;;;10.55;5.18;;;29.80;95.70;;;;;;4210933;28;20020;-64
2022/07/04 07:10:08;;;;;;;7.38;5.45;;;29.60;95.70;;;;;;4211856;28;20040;-65
2022/07/04 07:12:10;;;;;;;14.85;5.47;;;29.30;96.10;;;;;;4211611;28;20077;-64
2022/07/04 07:14:11;;;;;;;15.40;5.47;;;29.50;96.10;;;;;;4211515;28;20036;-65
2022/07/04 07:16:13;;;;;;;15.43;5.55;;;29.50;96.00;;;;;;4212000;28;20028;-65
2022/07/04 07:18:16;;;;;;;13.48;5.53;;;29.70;95.80;;;;;;4211176;28;20040;-68
2022/07/04 07:20:17;;;;;;;10.93;4.97;;;29.70;95.70;;;;;;4212038;28;20040;-63
2022/07/04 07:22:18;;;;;;;17.50;6.10;;;29.50;95.50;;;;;;4210558;28;20082;-63
2022/07/04 07:24:19;;;;;;;11.02;4.93;;;29.90;95.40;;;;;;4211488;28;20040;-63
2022/07/04 07:26:21;;;;;;;9.18;4.80;;;30.10;94.90;;;;;;4210538;28;20054;-67
2022/07/04 07:28:22;;;;;;;8.13;5.00;;;30.10;94.90;;;;;;4212026;28;20093;-64
2022/07/04 07:30:23;;;;;;;12.60;5.80;;;29.90;94.90;;;;;;4210642;28;20023;-64
2022/07/04 07:32:24;;;;;;;12.82;5.45;;;30.20;94.70;;;;;;4212014;28;20044;-65
2022/07/04 07:34:26;;;;;;;15.95;5.18;;;30.40;94.60;;;;;;4210594;28;20149;-65
2022/07/04 07:36:27;;;;;;;10.07;4.47;;;30.40;94.20;;;;;;4211766;28;20073;-67
2022/07/04 07:38:28;;;;;;;19.58;5.65;;;30.10;94.20;;;;;;4210668;28;20036;-66
2022/07/04 07:40:29;;;;;;;12.18;5.32;;;30.00;94.30;;;;;;4211190;28;20040;-66
2022/07/04 07:42:30;;;;;;;15.43;5.57;;;29.80;94.50;;;;;;4210517;28;20040;-64
2022/07/04 07:44:32;;;;;;;11.95;5.65;;;29.90;94.80;;;;;;4210864;28;20055;-68
2022/07/04 07:46:33;;;;;;;11.70;5.65;;;30.00;94.90;;;;;;4211103;28;20028;-65
2022/07/04 07:48:34;;;;;;;11.77;5.35;;;29.70;95.00;;;;;;4210406;28;20039;-67
2022/07/04 07:50:36;;;;;;;12.30;5.72;;;29.60;95.30;;;;;;4211089;28;20028;-65
2022/07/04 07:52:37;;;;;;;13.85;5.20;;;29.50;95.30;;;;;;4210105;28;20375;-64
2022/07/04 07:54:38;;;;;;;13.98;5.97;;;29.50;95.30;;;;;;4211426;28;20036;-67
2022/07/04 07:56:39;;;;;;;9.05;5.53;;;29.40;95.30;;;;;;4210085;28;20752;-65
2022/07/04 07:58:40;;;;;;;12.35;6.57;;;29.40;95.10;;;;;;4211479;28;20048;-66
2022/07/04 08:00:42;;;;;;;8.63;5.60;;;29.50;95.00;;;;;;4209022;28;20063;-67
2022/07/04 08:05:03;;;;;;;;;;;29.90;94.70;;;;;;4210715;28;20428;-65
2022/07/04 08:07:05;;;;;;;10.38;4.95;;;30.00;93.80;;;;;;4211160;28;20342;-64
2022/07/04 08:09:07;;;;;;;8.30;4.68;;;29.90;94.30;;;;;;4210051;28;20028;-66
2022/07/04 08:11:09;;;;;;;11.10;6.43;;;30.00;94.30;;;;;;4211271;28;20097;-67
2022/07/04 08:13:10;;;;;;;13.02;5.75;;;29.90;94.20;;;;;;4209940;28;20036;-64
2022/07/04 08:15:11;;;;;;;8.80;5.38;;;29.90;94.30;;;;;;4210663;28;20016;-62
2022/07/04 08:17:13;;;;;;;10.77;4.97;;;30.20;94.10;;;;;;4210380;28;20035;-67
2022/07/04 08:19:14;;;;;;;10.13;5.25;;;30.10;93.90;;;;;;4210662;28;20097;-67
2022/07/04 08:21:15;;;;;;;12.45;5.20;;;30.00;93.80;;;;;;4210609;28;20028;-64
2022/07/04 08:23:17;;;;;;;12.98;5.45;;;30.00;93.80;;;;;;4210369;28;20028;-66
2022/07/04 08:25:19;;;;;;;8.45;5.63;;;30.20;93.70;;;;;;4211209;28;20503;-64
2022/07/04 08:27:23;;;;;;;7.60;4.88;;;30.50;93.50;;;;;;4209785;28;20194;-66
2022/07/04 08:29:26;;;;;;;13.02;4.90;;;30.70;93.30;;;;;;4211083;28;20073;-63
2022/07/04 08:31:28;;;;;;;9.93;4.70;;;30.80;93.10;;;;;;4209787;28;20066;-64
2022/07/04 08:33:29;;;;;;;11.30;5.43;;;30.80;92.90;;;;;;4211358;28;20381;-67
2022/07/04 08:35:30;;;;;;;9.93;4.63;;;31.00;93.00;;;;;;4210037;28;20035;-63
2022/07/04 08:37:31;;;;;;;8.93;4.28;;;31.00;92.70;;;;;;4211098;28;20089;-63
2022/07/04 08:39:32;;;;;;;15.20;4.68;;;31.30;92.40;;;;;;4208742;28;20044;-62
2022/07/04 08:41:40;;;;;;;9.00;5.15;;;31.40;92.00;;;;;;4211066;28;20492;-64
2022/07/04 08:43:41;;;;;;;8.38;4.57;;;31.50;91.70;;;;;;4209806;28;20040;-65
2022/07/04 08:45:47;;;;;;;5.75;3.78;;;31.30;91.80;;;;;;4211491;28;20369;-65
2022/07/04 08:47:52;;;;;;;7.63;4.38;;;31.20;91.30;;;;;;4209826;28;20024;-63
2022/07/04 08:50:11;;;;;;;12.68;4.60;;;31.10;91.50;;;;;;4210827;28;20077;-63
2022/07/04 08:52:22;;;;;;;10.13;3.78;;;30.80;90.80;;;;;;4210064;28;20093;-64
2022/07/04 08:59:05;;;;;;;6.60;3.55;;;30.80;90.90;;;;;;4211320;28;20068;-65
2022/07/04 09:01:14;;;;;;;6.18;3.17;;;30.70;90.90;;;;;;4209949;28;20036;-64
2022/07/04 09:03:18;;;;;;;4.85;3.20;;;30.60;90.20;;;;;;4210948;28;20056;-65
2022/07/04 09:05:19;;;;;;;9.75;3.80;;;30.70;90.00;;;;;;4209512;28;20048;-62
2022/07/04 09:07:20;;;;;;;7.43;3.65;;;30.90;89.90;;;;;;4210997;28;20078;-68
2022/07/04 09:09:23;;;;;;;8.70;3.53;;;31.00;89.50;;;;;;4209983;28;20032;-68
2022/07/04 09:11:25;;;;;;;7.57;3.15;;;31.00;88.70;;;;;;4210507;28;20032;-68
2022/07/04 09:13:26;;;;;;;4.70;3.10;;;30.90;87.90;;;;;;4209808;28;20036;-65
2022/07/04 09:15:27;;;;;;;7.43;3.70;;;30.90;87.60;;;;;;4210562;28;20125;-65
2022/07/04 09:17:32;;;;;;;9.45;4.10;;;31.00;87.90;;;;;;4210264;28;20078;-66
2022/07/04 09:19:33;;;;;;;4.65;3.10;;;31.10;87.90;;;;;;4209933;28;20032;-67
2022/07/04 09:21:45;;;;;;;11.77;4.32;;;31.10;87.70;;;;;;4209195;28;20189;-64
2022/07/04 09:23:46;;;;;;;7.50;3.88;;;31.30;88.20;;;;;;4209882;28;20542;-64
2022/07/04 09:25:49;;;;;;;6.75;3.95;;;31.20;88.50;;;;;;4210205;28;20450;-66
2022/07/04 09:27:52;;;;;;;6.43;3.97;;;31.20;89.20;;;;;;4212077;28;20415;-66
2022/07/04 09:29:53;;;;;;;7.18;3.70;;;31.40;88.20;;;;;;4213635;28;20082;-65
2022/07/04 09:31:55;;;;;;;5.85;3.50;;;31.60;87.60;;;;;;4212284;28;20024;-67
2022/07/04 09:34:07;;;;;;;8.82;3.65;;;31.80;87.10;;;;;;4213746;28;20121;-64
2022/07/04 09:36:14;;;;;;;5.65;3.30;;;32.00;86.30;;;;;;4212456;28;20024;-66
2022/07/04 09:38:23;;;;;;;4.30;3.05;;;31.90;84.00;;;;;;4213751;28;20097;-65
2022/07/04 09:40:28;;;;;;;5.82;3.42;;;31.80;84.00;;;;;;4212241;28;20085;-63
2022/07/04 09:42:41;;;;;;;10.02;3.08;;;31.90;82.80;;;;;;4213479;28;20120;-63
2022/07/04 09:44:49;;;;;;;6.75;2.97;;;32.10;81.50;;;;;;4212163;28;20028;-66
2022/07/04 09:46:50;;;;;;;8.02;3.03;;;32.30;80.70;;;;;;4213620;28;20530;-67
2022/07/04 09:48:51;;;;;;;5.78;3.97;;;32.30;80.20;;;;;;4212129;28;20028;-66
2022/07/04 09:50:53;;;;;;;5.07;2.90;;;32.40;79.90;;;;;;4213033;28;20012;-67
2022/07/04 09:53:01;;;;;;;6.45;3.50;;;32.70;80.40;;;;;;4212099;28;20040;-67
2022/07/04 09:55:05;;;;;;;4.93;3.10;;;33.00;78.10;;;;;;4213262;28;20567;-64
2022/07/04 09:57:06;;;;;;;8.88;3.05;;;33.10;77.90;;;;;;4211701;28;20674;-63
2022/07/04 09:59:08;;;;;;;3.08;2.58;;;33.00;77.00;;;;;;4212793;28;20101;-64
2022/07/04 10:01:09;;;;;;;6.22;2.53;;;33.10;76.90;;;;;;4211861;28;20028;-65
2022/07/04 10:03:16;;;;;;;4.70;3.13;;;32.80;76.70;;;;;;4212125;28;20078;-64
2022/07/04 10:05:27;;;;;;;7.03;3.42;;;32.70;75.80;;;;;;4212378;28;20044;-64
2022/07/04 10:07:36;;;;;;;5.82;3.00;;;32.50;76.50;;;;;;4212685;28;20567;-65
2022/07/04 10:09:37;;;;;;;6.57;3.10;;;32.50;76.90;;;;;;4212322;28;20081;-62
2022/07/04 10:11:41;;;;;;;7.65;3.17;;;32.70;77.20;;;;;;4212024;28;20082;-65
2022/07/04 10:13:42;;;;;;;6.50;2.80;;;32.80;76.40;;;;;;4212184;28;20529;-67
2022/07/04 10:15:43;;;;;;;5.38;3.28;;;32.50;75.80;;;;;;4212093;28;20515;-68
2022/07/04 10:17:45;;;;;;;5.95;3.17;;;32.20;75.50;;;;;;4212581;28;20101;-64
2022/07/04 10:19:47;;;;;;;4.07;3.03;;;31.90;75.40;;;;;;4211420;28;20016;-63
2022/07/04 10:21:49;;;;;;;4.10;3.05;;;31.90;75.80;;;;;;4212662;28;20551;-69
2022/07/04 10:23:54;;;;;;;4.07;3.25;;;31.90;75.90;;;;;;4211222;28;20020;-63
2022/07/04 10:25:55;;;;;;;5.82;2.83;;;32.00;75.50;;;;;;4212285;28;20388;-64
2022/07/04 10:27:56;;;;;;;5.40;3.42;;;32.00;75.30;;;;;;4211787;28;20101;-65
2022/07/04 10:29:59;;;;;;;13.65;3.20;;;31.90;75.40;;;;;;4212780;28;20040;-64
2022/07/04 10:32:01;;;;;;;5.70;3.42;;;31.80;75.10;;;;;;4211261;28;20450;-65
2022/07/04 10:34:03;;;;;;;6.20;3.42;;;31.80;75.10;;;;;;4212493;28;20024;-65
2022/07/04 10:36:17;;;;;;;8.40;3.17;;;31.90;75.20;;;;;;4211536;28;20016;-66
2022/07/04 10:38:18;;;;;;;4.63;2.97;;;32.00;74.40;;;;;;4211804;28;20541;-65
2022/07/04 10:40:47;;;;;;;7.70;2.92;;;32.20;74.60;;;;;;4211258;28;20028;-64
2022/07/04 10:42:50;;;;;;;6.60;2.87;;;32.30;73.30;;;;;;4212368;28;20354;-66